Radiosonde details



Informationen :

Serial : D26002191
Type : Graw DFM
Frequency : 403.210MHz
Launchsite : -
Nearest town : Wells, US (47.9km)

Altitude (Max) : 33870m at 2026-09-04 00:38:40
Speed (Max) : 131km/h at altitude 13505m

Average speed : 42km/h
Average ascent rate : 6m/s
Average descent rate : -14m/s
Ascent rate (Max) : 9.0m/s
Descent rate (Max): -58.1m/s

First frame :
KE7DJD at 2026-09-04 00:05:35 at altitude 22329m (OG: 22287m)
Last frame :
KE7DJD at 2026-09-04 01:09:48 at altitude 7872m (OG: 7830m)

Flighttime : 1h4m13s
Ascent time : 33m5s
Descent time : 31m8s
Uptime : -
Killtimer : -

Distance (Straight line distance): 24km

Distance (Route):


Frames : 182


Measurement :

Temperature : -17.2°C
Humidity : 0%
Pressure : 0hPa


Vertical profile (SkewT) :


Elevation profile :



Receiving stations :


Receiver Frames First received Last received
KE7DJD 182 2026-09-04 00:05:35 2026-09-04 01:09:48

Share per receiver :



All frames :


Receiver Date Latitude Longitude Direction Speed Altitude Climb Temperature Humidity Pressure Voltage Killtimer Uptime BKT XDATA
KE7DJD2026-09-04 01:09:4841.53087-114.8324346°95km/h7872m-6.3m/s-17.2°C0%0hPa0V00:00:0000:00:0000:00:00
KE7DJD2026-09-04 01:09:1641.52529-114.8401248°97km/h8080m-6.3m/s-19.0°C0%0hPa0V00:00:0000:00:0000:00:00
KE7DJD2026-09-04 01:08:5041.52105-114.8462748°97km/h8244m-6.2m/s-19.6°C0%0hPa0V00:00:0000:00:0000:00:00
KE7DJD2026-09-04 01:08:2741.51740-114.8517751°99km/h8381m-6.4m/s-20.4°C0%0hPa0V00:00:0000:00:0000:00:00
KE7DJD2026-09-04 01:08:0741.51413-114.8572855°97km/h8514m-6.5m/s-21.2°C0%0hPa0V00:00:0000:00:0000:00:00
KE7DJD2026-09-04 01:07:4541.51119-114.8627556°93km/h8651m-6.7m/s-22.0°C0%0hPa0V00:00:0000:00:0000:00:00
KE7DJD2026-09-04 01:07:2341.50825-114.8686658°99km/h8795m-6.6m/s-23.3°C0%0hPa0V00:00:0000:00:0000:00:00
KE7DJD2026-09-04 01:07:0341.50552-114.8745158°99km/h8934m-6.9m/s-24.6°C0%0hPa0V00:00:0000:00:0000:00:00
KE7DJD2026-09-04 01:06:4241.50261-114.8800757°99km/h9068m-6.5m/s-25.8°C0%0hPa0V00:00:0000:00:0000:00:00
KE7DJD2026-09-04 01:06:2241.49986-114.8857560°99km/h9199m-6.6m/s-27.0°C0%0hPa0V00:00:0000:00:0000:00:00
KE7DJD2026-09-04 01:05:4141.49512-114.8972463°91km/h9476m-6.6m/s-29.5°C0%0hPa0V00:00:0000:00:0000:00:00
KE7DJD2026-09-04 01:05:2141.49280-114.9027561°89km/h9621m-6.9m/s-30.6°C0%0hPa0V00:00:0000:00:0000:00:00
KE7DJD2026-09-04 01:05:0041.49046-114.9082762°88km/h9765m-6.7m/s-31.4°C0%0hPa0V00:00:0000:00:0000:00:00
KE7DJD2026-09-04 01:04:4041.48821-114.9133660°86km/h9902m-6.8m/s-32.6°C0%0hPa0V00:00:0000:00:0000:00:00
KE7DJD2026-09-04 01:04:1941.48593-114.9181858°84km/h10042m-6.8m/s-33.9°C0%0hPa0V00:00:0000:00:0000:00:00
KE7DJD2026-09-04 01:03:5941.48339-114.9230254°84km/h10189m-7.0m/s-35.1°C0%0hPa0V00:00:0000:00:0000:00:00
KE7DJD2026-09-04 01:03:3741.48071-114.9277453°82km/h10337m-6.9m/s-35.8°C0%0hPa0V00:00:0000:00:0000:00:00
KE7DJD2026-09-04 01:03:1741.47800-114.9323453°82km/h10487m-7.1m/s-37.1°C0%0hPa0V00:00:0000:00:0000:00:00
KE7DJD2026-09-04 01:02:5741.47541-114.9368654°84km/h10632m-7.3m/s-38.3°C0%0hPa0V00:00:0000:00:0000:00:00
KE7DJD2026-09-04 01:02:3641.47278-114.9414152°86km/h10779m-7.3m/s-39.7°C0%0hPa0V00:00:0000:00:0000:00:00
KE7DJD2026-09-04 01:02:1641.46980-114.9461451°88km/h10934m-7.4m/s-41.1°C0%0hPa0V00:00:0000:00:0000:00:00
KE7DJD2026-09-04 01:01:5541.46701-114.9509055°91km/h11086m-7.7m/s-42.3°C0%0hPa0V00:00:0000:00:0000:00:00
KE7DJD2026-09-04 01:01:3541.46429-114.9565661°97km/h11253m-7.8m/s-43.4°C0%0hPa0V00:00:0000:00:0000:00:00
KE7DJD2026-09-04 01:01:1441.46190-114.9622763°99km/h11412m-8.1m/s-44.9°C0%0hPa0V00:00:0000:00:0000:00:00
KE7DJD2026-09-04 01:00:5441.45952-114.9683763°97km/h11585m-8.2m/s-45.5°C0%0hPa0V00:00:0000:00:0000:00:00
KE7DJD2026-09-04 01:00:3241.45672-114.9745656°113km/h11762m-8.3m/s-45.3°C0%0hPa0V00:00:0000:00:0000:00:00
KE7DJD2026-09-04 01:00:1141.45335-114.9814759°124km/h11944m-9.0m/s-45.3°C0%0hPa0V00:00:0000:00:0000:00:00
KE7DJD2026-09-04 00:59:5141.44958-114.9891658°130km/h12130m-8.5m/s-45.5°C0%0hPa0V00:00:0000:00:0000:00:00
KE7DJD2026-09-04 00:59:3041.44596-114.9967758°122km/h12314m-8.4m/s-46.7°C0%0hPa0V00:00:0000:00:0000:00:00
KE7DJD2026-09-04 00:59:0941.44253-115.0035856°122km/h12487m-8.7m/s-48.1°C0%0hPa0V00:00:0000:00:0000:00:00
KE7DJD2026-09-04 00:58:4941.43888-115.0106356°117km/h12671m-8.2m/s-48.0°C0%0hPa0V00:00:0000:00:0000:00:00
KE7DJD2026-09-04 00:58:2841.43497-115.0169651°126km/h12843m-8.1m/s-47.7°C0%0hPa0V00:00:0000:00:0000:00:00
KE7DJD2026-09-04 00:58:0641.43073-115.0242557°120km/h13030m-8.0m/s-47.4°C0%0hPa0V00:00:0000:00:0000:00:00
KE7DJD2026-09-04 00:57:4641.42748-115.0315963°119km/h13197m-7.9m/s-46.2°C0%0hPa0V00:00:0000:00:0000:00:00
KE7DJD2026-09-04 00:57:2441.42447-115.0387659°117km/h13356m-7.3m/s-44.8°C0%0hPa0V00:00:0000:00:0000:00:00
KE7DJD2026-09-04 00:57:0441.42091-115.0455954°130km/h13505m-7.3m/s-45.2°C0%0hPa0V00:00:0000:00:0000:00:00
KE7DJD2026-09-04 00:56:4441.41725-115.0525860°110km/h13666m-8.0m/s-43.9°C0%0hPa0V00:00:0000:00:0000:00:00
KE7DJD2026-09-04 00:56:2341.41484-115.0591070°106km/h13836m-9.2m/s-43.8°C0%0hPa0V00:00:0000:00:0000:00:00
KE7DJD2026-09-04 00:56:0341.41292-115.0644559°73km/h14040m-11.8m/s-43.6°C0%0hPa0V00:00:0000:00:0000:00:00
KE7DJD2026-09-04 00:55:4241.41095-115.0681646°57km/h14259m-10.6m/s-45.1°C0%0hPa0V00:00:0000:00:0000:00:00
KE7DJD2026-09-04 00:55:2141.40891-115.0706036°57km/h14459m-10.7m/s-46.5°C0%0hPa0V00:00:0000:00:0000:00:00
KE7DJD2026-09-04 00:55:0141.40632-115.0723021°58km/h14674m-10.3m/s-48.0°C0%0hPa0V00:00:0000:00:0000:00:00
KE7DJD2026-09-04 00:54:4041.40338-115.0736919°66km/h14881m-10.3m/s-49.6°C0%0hPa0V00:00:0000:00:0000:00:00
KE7DJD2026-09-04 00:54:1841.39997-115.0754327°62km/h15112m-10.5m/s-51.2°C0%0hPa0V00:00:0000:00:0000:00:00
KE7DJD2026-09-04 00:53:5841.39717-115.0779243°64km/h15336m-10.8m/s-53.1°C0%0hPa0V00:00:0000:00:0000:00:00
KE7DJD2026-09-04 00:53:3741.39463-115.0815255°77km/h15561m-10.7m/s-54.8°C0%0hPa0V00:00:0000:00:0000:00:00
KE7DJD2026-09-04 00:53:1641.39240-115.0863063°80km/h15779m-11.0m/s-54.7°C0%0hPa0V00:00:0000:00:0000:00:00
KE7DJD2026-09-04 00:52:5641.39074-115.0906261°60km/h16014m-11.1m/s-55.2°C0%0hPa0V00:00:0000:00:0000:00:00
KE7DJD2026-09-04 00:52:3541.38907-115.0934346°51km/h16241m-11.2m/s-54.6°C0%0hPa0V00:00:0000:00:0000:00:00
KE7DJD2026-09-04 00:52:1541.38630-115.0959635°77km/h16479m-11.3m/s-53.7°C0%0hPa0V00:00:0000:00:0000:00:00
KE7DJD2026-09-04 00:51:5441.38328-115.0992944°78km/h16714m-12.0m/s-54.7°C0%0hPa0V00:00:0000:00:0000:00:00
KE7DJD2026-09-04 00:51:3441.38157-115.1029962°55km/h16970m-12.3m/s-51.5°C0%0hPa0V00:00:0000:00:0000:00:00
KE7DJD2026-09-04 00:51:1441.37981-115.1063456°69km/h17219m-12.6m/s-51.5°C0%0hPa0V00:00:0000:00:0000:00:00
KE7DJD2026-09-04 00:50:5341.37730-115.1098441°73km/h17490m-12.6m/s-50.2°C0%0hPa0V00:00:0000:00:0000:00:00
KE7DJD2026-09-04 00:50:3241.37487-115.1133357°55km/h17752m-12.9m/s-48.3°C0%0hPa0V00:00:0000:00:0000:00:00
KE7DJD2026-09-04 00:50:1241.37370-115.1152427°24km/h18037m-14.0m/s-46.8°C0%0hPa0V00:00:0000:00:0000:00:00
KE7DJD2026-09-04 00:49:5241.37250-115.11543349°27km/h18322m-14.3m/s-48.4°C0%0hPa0V00:00:0000:00:0000:00:00
KE7DJD2026-09-04 00:49:3141.37089-115.11515352°37km/h18629m-14.3m/s-48.9°C0%0hPa0V00:00:0000:00:0000:00:00
KE7DJD2026-09-04 00:49:1141.36887-115.1150417°42km/h18926m-14.7m/s-50.0°C0%0hPa0V00:00:0000:00:0000:00:00
KE7DJD2026-09-04 00:48:5041.36747-115.1168556°27km/h19243m-15.1m/s-49.1°C0%0hPa0V00:00:0000:00:0000:00:00
KE7DJD2026-09-04 00:48:2941.36682-115.1178944°11km/h19568m-15.6m/s-50.6°C0%0hPa0V00:00:0000:00:0000:00:00
KE7DJD2026-09-04 00:48:0841.36577-115.11759350°27km/h19887m-16.0m/s-48.5°C0%0hPa0V00:00:0000:00:0000:00:00
KE7DJD2026-09-04 00:47:4841.36456-115.1177130°9km/h20234m-16.5m/s-48.8°C0%0hPa0V00:00:0000:00:0000:00:00
KE7DJD2026-09-04 00:47:2741.36462-115.11755247°11km/h20573m-17.4m/s-48.7°C0%0hPa0V00:00:0000:00:0000:00:00
KE7DJD2026-09-04 00:47:0741.36431-115.116707km/h20942m-17.7m/s-49.3°C0%0hPa0V00:00:0000:00:0000:00:00
KE7DJD2026-09-04 00:46:4641.36423-115.116910km/h21327m-18.6m/s-48.2°C0%0hPa0V00:00:0000:00:0000:00:00
KE7DJD2026-09-04 00:46:2641.36436-115.11676253°13km/h21701m-18.8m/s-47.6°C0%0hPa0V00:00:0000:00:0000:00:00
KE7DJD2026-09-04 00:46:0541.36427-115.11629319°5km/h22088m-19.8m/s-47.1°C0%0hPa0V00:00:0000:00:0000:00:00
KE7DJD2026-09-04 00:45:4541.36398-115.11568324°7km/h22507m-20.2m/s-48.1°C0%0hPa0V00:00:0000:00:0000:00:00
KE7DJD2026-09-04 00:45:2441.36378-115.11528259°13km/h22921m-21.4m/s-47.4°C0%0hPa0V00:00:0000:00:0000:00:00
KE7DJD2026-09-04 00:45:0441.36395-115.11443281°13km/h23376m-21.9m/s-47.9°C0%0hPa0V00:00:0000:00:0000:00:00
KE7DJD2026-09-04 00:44:2341.36406-115.11234245°29km/h24321m-24.2m/s-45.2°C0%0hPa0V00:00:0000:00:0000:00:00
KE7DJD2026-09-04 00:44:0241.36418-115.11022270°22km/h24834m-25.0m/s-44.2°C0%0hPa0V00:00:0000:00:0000:00:00
KE7DJD2026-09-04 00:43:4141.36401-115.10813292°26km/h25369m-26.0m/s-43.2°C0%0hPa0V00:00:0000:00:0000:00:00
KE7DJD2026-09-04 00:43:2041.36362-115.10677274°22km/h25929m-27.4m/s-42.3°C0%0hPa0V00:00:0000:00:0000:00:00
KE7DJD2026-09-04 00:42:5941.36336-115.10563250°20km/h26513m-28.2m/s-41.2°C0%0hPa0V00:00:0000:00:0000:00:00
KE7DJD2026-09-04 00:42:3841.36269-115.10446341°31km/h27120m-30.2m/s-41.3°C0%0hPa0V00:00:0000:00:0000:00:00
KE7DJD2026-09-04 00:42:1741.36195-115.1046556°18km/h27725m-30.4m/s-39.7°C0%0hPa0V00:00:0000:00:0000:00:00
KE7DJD2026-09-04 00:41:5741.36220-115.10497126°22km/h28393m-33.2m/s-40.0°C0%0hPa0V00:00:0000:00:0000:00:00
KE7DJD2026-09-04 00:41:3541.36330-115.10539192°20km/h29135m-34.6m/s-37.2°C0%0hPa0V00:00:0000:00:0000:00:00
KE7DJD2026-09-04 00:41:1441.36384-115.10512166°15km/h29889m-37.2m/s-37.8°C0%0hPa0V00:00:0000:00:0000:00:00
KE7DJD2026-09-04 00:40:5241.36485-115.10464215°31km/h30698m-40.2m/s-37.2°C0%0hPa0V00:00:0000:00:0000:00:00
KE7DJD2026-09-04 00:40:2541.36579-115.10303254°18km/h31718m-27.1m/s-34.5°C0%0hPa0V00:00:0000:00:0000:00:00
KE7DJD2026-09-04 00:40:0341.36548-115.10197304°15km/h32306m-38.2m/s-33.5°C0%0hPa0V00:00:0000:00:0000:00:00
KE7DJD2026-09-04 00:39:4141.36509-115.10048279°58km/h33071m-30.1m/s-33.1°C0%0hPa0V00:00:0000:00:0000:00:00
KE7DJD2026-09-04 00:39:2041.36439-115.09970345°13km/h33787m-58.1m/s-30.7°C0%0hPa0V00:00:0000:00:0000:00:00
KE7DJD2026-09-04 00:38:4041.36424-115.09782150°9km/h33870m6.3m/s-31.4°C0%0hPa0V00:00:0000:00:0000:00:00
KE7DJD2026-09-04 00:38:1941.36378-115.09755101°20km/h33758m1.9m/s-31.9°C0%0hPa0V00:00:0000:00:0000:00:00
KE7DJD2026-09-04 00:37:5841.36319-115.09709109°24km/h33646m3.6m/s-32.2°C0%0hPa0V00:00:0000:00:0000:00:00
KE7DJD2026-09-04 00:37:3841.36292-115.09645276°11km/h33526m6.8m/s-32.5°C0%0hPa0V00:00:0000:00:0000:00:00
KE7DJD2026-09-04 00:37:1741.36256-115.09563277°35km/h33401m4.0m/s-32.8°C0%0hPa0V00:00:0000:00:0000:00:00
KE7DJD2026-09-04 00:36:5641.36215-115.09469284°33km/h33286m6.0m/s-33.0°C0%0hPa0V00:00:0000:00:0000:00:00
KE7DJD2026-09-04 00:36:3641.36152-115.0934716°31km/h33162m6.2m/s-33.2°C0%0hPa0V00:00:0000:00:0000:00:00
KE7DJD2026-09-04 00:36:1541.36106-115.09230354°22km/h33046m6.2m/s-32.9°C0%0hPa0V00:00:0000:00:0000:00:00
KE7DJD2026-09-04 00:35:5541.36060-115.09147268°37km/h32924m7.6m/s-32.9°C0%0hPa0V00:00:0000:00:0000:00:00
KE7DJD2026-09-04 00:35:3441.36035-115.09101272°22km/h32809m5.8m/s-32.7°C0%0hPa0V00:00:0000:00:0000:00:00
KE7DJD2026-09-04 00:35:1441.35997-115.09023353°18km/h32688m6.9m/s-32.4°C0%0hPa0V00:00:0000:00:0000:00:00
KE7DJD2026-09-04 00:34:5441.35968-115.08960326°18km/h32573m3.8m/s-33.2°C0%0hPa0V00:00:0000:00:0000:00:00
KE7DJD2026-09-04 00:34:3341.35928-115.08863324°27km/h32452m6.6m/s-33.3°C0%0hPa0V00:00:0000:00:0000:00:00
KE7DJD2026-09-04 00:34:1341.35917-115.08810298°33km/h32333m7.6m/s-33.5°C0%0hPa0V00:00:0000:00:0000:00:00
KE7DJD2026-09-04 00:33:5041.35885-115.08764353°16km/h32202m4.0m/s-33.4°C0%0hPa0V00:00:0000:00:0000:00:00
KE7DJD2026-09-04 00:33:2941.35842-115.08700299°4km/h32077m4.0m/s-33.9°C0%0hPa0V00:00:0000:00:0000:00:00
KE7DJD2026-09-04 00:33:0741.35807-115.08533264°42km/h31940m3.1m/s-33.5°C0%0hPa0V00:00:0000:00:0000:00:00
KE7DJD2026-09-04 00:32:4741.35825-115.08398251°33km/h31821m6.1m/s-33.0°C0%0hPa0V00:00:0000:00:0000:00:00
KE7DJD2026-09-04 00:32:2641.35880-115.08298157°16km/h31691m6.2m/s-34.4°C0%0hPa0V00:00:0000:00:0000:00:00
KE7DJD2026-09-04 00:32:0541.35961-115.08265284°7km/h31574m7.2m/s-35.1°C0%0hPa0V00:00:0000:00:0000:00:00
KE7DJD2026-09-04 00:31:4541.36005-115.08214275°33km/h31452m7.8m/s-35.7°C0%0hPa0V00:00:0000:00:0000:00:00
KE7DJD2026-09-04 00:31:2441.36068-115.08123234°11km/h31340m5.7m/s-36.7°C0%0hPa0V00:00:0000:00:0000:00:00
KE7DJD2026-09-04 00:31:0241.36094-115.07992253°18km/h31212m4.6m/s-36.9°C0%0hPa0V00:00:0000:00:0000:00:00
KE7DJD2026-09-04 00:30:3641.36158-115.07802233°15km/h31057m6.0m/s-37.2°C0%0hPa0V00:00:0000:00:0000:00:00
KE7DJD2026-09-04 00:30:1641.36246-115.07675241°24km/h30937m8.2m/s-36.9°C0%0hPa0V00:00:0000:00:0000:00:00
KE7DJD2026-09-04 00:29:5541.36344-115.07594216°7km/h30812m5.5m/s-36.6°C0%0hPa0V00:00:0000:00:0000:00:00
KE7DJD2026-09-04 00:29:3541.36445-115.07507204°27km/h30693m5.0m/s-36.6°C0%0hPa0V00:00:0000:00:0000:00:00
KE7DJD2026-09-04 00:29:1441.36574-115.07490158°53km/h30566m4.2m/s-37.1°C0%0hPa0V00:00:0000:00:0000:00:00
KE7DJD2026-09-04 00:28:5241.36716-115.07523198°37km/h30439m4.4m/s-36.6°C0%0hPa0V00:00:0000:00:0000:00:00
KE7DJD2026-09-04 00:28:3241.36792-115.07556173°46km/h30312m7.0m/s-35.9°C0%0hPa0V00:00:0000:00:0000:00:00
KE7DJD2026-09-04 00:28:1241.36869-115.07510183°22km/h30184m5.7m/s-35.1°C0%0hPa0V00:00:0000:00:0000:00:00
KE7DJD2026-09-04 00:27:5141.36968-115.074330km/h30060m6.5m/s-35.6°C0%0hPa0V00:00:0000:00:0000:00:00
KE7DJD2026-09-04 00:27:3141.37018-115.07398149°29km/h29932m5.5m/s-36.3°C0%0hPa0V00:00:0000:00:0000:00:00
KE7DJD2026-09-04 00:27:1141.37054-115.0740561°5km/h29812m4.5m/s-36.8°C0%0hPa0V00:00:0000:00:0000:00:00
KE7DJD2026-09-04 00:26:5041.37067-115.07445354°13km/h29687m7.2m/s-37.1°C0%0hPa0V00:00:0000:00:0000:00:00
KE7DJD2026-09-04 00:26:2941.37056-115.07434220°18km/h29567m7.7m/s-36.6°C0%0hPa0V00:00:0000:00:0000:00:00
KE7DJD2026-09-04 00:26:0941.37092-115.07330174°18km/h29442m6.3m/s-36.7°C0%0hPa0V00:00:0000:00:0000:00:00
KE7DJD2026-09-04 00:25:4941.37184-115.07236212°29km/h29326m7.1m/s-36.7°C0%0hPa0V00:00:0000:00:0000:00:00
KE7DJD2026-09-04 00:25:2841.37290-115.07171188°26km/h29200m5.5m/s-36.6°C0%0hPa0V00:00:0000:00:0000:00:00
KE7DJD2026-09-04 00:25:0741.37418-115.07167197°33km/h29082m5.1m/s-36.4°C0%0hPa0V00:00:0000:00:0000:00:00
KE7DJD2026-09-04 00:24:4741.37594-115.07210135°35km/h28955m5.7m/s-36.8°C0%0hPa0V00:00:0000:00:0000:00:00
KE7DJD2026-09-04 00:24:2641.37702-115.07256188°22km/h28834m5.5m/s-37.5°C0%0hPa0V00:00:0000:00:0000:00:00
KE7DJD2026-09-04 00:24:0641.37787-115.07319174°26km/h28701m8.0m/s-38.0°C0%0hPa0V00:00:0000:00:0000:00:00
KE7DJD2026-09-04 00:23:4541.37868-115.07320148°49km/h28572m9.0m/s-38.4°C0%0hPa0V00:00:0000:00:0000:00:00
KE7DJD2026-09-04 00:23:2341.37939-115.07379159°20km/h28441m5.8m/s-39.1°C0%0hPa0V00:00:0000:00:0000:00:00
KE7DJD2026-09-04 00:23:0341.37971-115.074420km/h28313m4.0m/s-39.4°C0%0hPa0V00:00:0000:00:0000:00:00
KE7DJD2026-09-04 00:22:4241.37975-115.07492284°15km/h28185m7.4m/s-39.7°C0%0hPa0V00:00:0000:00:0000:00:00
KE7DJD2026-09-04 00:22:2041.37958-115.07475342°9km/h28061m2.7m/s-39.5°C0%0hPa0V00:00:0000:00:0000:00:00
KE7DJD2026-09-04 00:22:0041.37993-115.074257km/h27943m8.6m/s-39.5°C0%0hPa0V00:00:0000:00:0000:00:00
KE7DJD2026-09-04 00:21:4041.37977-115.0745319°13km/h27826m6.4m/s-39.3°C0%0hPa0V00:00:0000:00:0000:00:00
KE7DJD2026-09-04 00:21:2041.37925-115.0751741°29km/h27711m5.5m/s-39.8°C0%0hPa0V00:00:0000:00:0000:00:00
KE7DJD2026-09-04 00:20:5941.37841-115.0751721°4km/h27592m4.4m/s-40.2°C0%0hPa0V00:00:0000:00:0000:00:00
KE7DJD2026-09-04 00:20:3941.37758-115.07500295°24km/h27478m4.7m/s-40.7°C0%0hPa0V00:00:0000:00:0000:00:00
KE7DJD2026-09-04 00:20:1841.37667-115.07480282°20km/h27357m5.4m/s-41.5°C0%0hPa0V00:00:0000:00:0000:00:00
KE7DJD2026-09-04 00:19:5841.37525-115.07413282°42km/h27247m4.2m/s-42.4°C0%0hPa0V00:00:0000:00:0000:00:00
KE7DJD2026-09-04 00:19:3741.37412-115.07284287°13km/h27125m4.2m/s-42.0°C0%0hPa0V00:00:0000:00:0000:00:00
KE7DJD2026-09-04 00:19:1641.37343-115.07135309°29km/h27006m6.3m/s-42.4°C0%0hPa0V00:00:0000:00:0000:00:00
KE7DJD2026-09-04 00:18:5641.37246-115.06990337°27km/h26875m4.7m/s-42.2°C0%0hPa0V00:00:0000:00:0000:00:00
KE7DJD2026-09-04 00:18:3541.37208-115.06840285°7km/h26750m4.5m/s-41.9°C0%0hPa0V00:00:0000:00:0000:00:00
KE7DJD2026-09-04 00:18:1541.37210-115.06710246°26km/h26620m3.4m/s-42.0°C0%0hPa0V00:00:0000:00:0000:00:00
KE7DJD2026-09-04 00:17:5441.37229-115.06634297°29km/h26493m6.2m/s-41.7°C0%0hPa0V00:00:0000:00:0000:00:00
KE7DJD2026-09-04 00:17:3441.37182-115.06532296°26km/h26372m6.0m/s-41.2°C0%0hPa0V00:00:0000:00:0000:00:00
KE7DJD2026-09-04 00:17:1341.37089-115.06395301°31km/h26246m3.3m/s-41.4°C0%0hPa0V00:00:0000:00:0000:00:00
KE7DJD2026-09-04 00:16:5241.37001-115.06250282°22km/h26131m6.7m/s-42.0°C0%0hPa0V00:00:0000:00:0000:00:00
KE7DJD2026-09-04 00:16:3241.36973-115.06114277°5km/h26009m7.7m/s-42.5°C0%0hPa0V00:00:0000:00:0000:00:00
KE7DJD2026-09-04 00:16:1141.36902-115.06019323°26km/h25889m7.4m/s-43.0°C0%0hPa0V00:00:0000:00:0000:00:00
KE7DJD2026-09-04 00:15:5141.36847-115.05874314°33km/h25773m5.1m/s-43.2°C0%0hPa0V00:00:0000:00:0000:00:00
KE7DJD2026-09-04 00:15:3041.36852-115.05757273°18km/h25665m3.2m/s-43.6°C0%0hPa0V00:00:0000:00:0000:00:00
KE7DJD2026-09-04 00:15:1141.36817-115.05649271°37km/h25550m4.7m/s-43.8°C0%0hPa0V00:00:0000:00:0000:00:00
KE7DJD2026-09-04 00:14:4941.36745-115.05488300°22km/h25438m5.4m/s-44.4°C0%0hPa0V00:00:0000:00:0000:00:00
KE7DJD2026-09-04 00:14:2941.36703-115.05267288°42km/h25319m2.6m/s-45.0°C0%0hPa0V00:00:0000:00:0000:00:00
KE7DJD2026-09-04 00:14:0841.36715-115.05054263°35km/h25204m4.9m/s-44.9°C0%0hPa0V00:00:0000:00:0000:00:00
KE7DJD2026-09-04 00:13:4741.36753-115.04879251°15km/h25081m4.6m/s-44.8°C0%0hPa0V00:00:0000:00:0000:00:00
KE7DJD2026-09-04 00:13:2741.36766-115.04748280°29km/h24966m6.7m/s-45.1°C0%0hPa0V00:00:0000:00:0000:00:00
KE7DJD2026-09-04 00:13:0741.36753-115.04562273°37km/h24844m6.3m/s-45.0°C0%0hPa0V00:00:0000:00:0000:00:00
KE7DJD2026-09-04 00:12:4641.36739-115.04325273°29km/h24716m5.6m/s-44.7°C0%0hPa0V00:00:0000:00:0000:00:00
KE7DJD2026-09-04 00:12:2641.36756-115.04095263°38km/h24596m6.9m/s-44.5°C0%0hPa0V00:00:0000:00:0000:00:00
KE7DJD2026-09-04 00:12:0641.36779-115.03836254°29km/h24479m6.8m/s-44.7°C0%0hPa0V00:00:0000:00:0000:00:00
KE7DJD2026-09-04 00:11:4541.36834-115.03594253°29km/h24360m6.6m/s-44.6°C0%0hPa0V00:00:0000:00:0000:00:00
KE7DJD2026-09-04 00:11:2341.36902-115.03445266°20km/h24235m6.1m/s-44.7°C0%0hPa0V00:00:0000:00:0000:00:00
KE7DJD2026-09-04 00:11:0341.36970-115.03374212°18km/h24124m5.5m/s-44.7°C0%0hPa0V00:00:0000:00:0000:00:00
KE7DJD2026-09-04 00:10:4341.37038-115.03319213°20km/h24008m4.3m/s-45.0°C0%0hPa0V00:00:0000:00:0000:00:00
KE7DJD2026-09-04 00:10:2241.37062-115.03278102°5km/h23899m3.4m/s-45.6°C0%0hPa0V00:00:0000:00:0000:00:00
KE7DJD2026-09-04 00:10:0141.37055-115.0322351°16km/h23786m5.2m/s-46.4°C0%0hPa0V00:00:0000:00:0000:00:00
KE7DJD2026-09-04 00:09:4241.37023-115.03128348°7km/h23681m5.7m/s-46.2°C0%0hPa0V00:00:0000:00:0000:00:00
KE7DJD2026-09-04 00:09:2041.36970-115.03052340°15km/h23567m5.3m/s-46.6°C0%0hPa0V00:00:0000:00:0000:00:00
KE7DJD2026-09-04 00:09:0041.36968-115.02965299°18km/h23459m4.3m/s-47.4°C0%0hPa0V00:00:0000:00:0000:00:00
KE7DJD2026-09-04 00:08:1941.36983-115.02908134°5km/h23237m5.6m/s-47.3°C0%0hPa0V00:00:0000:00:0000:00:00
KE7DJD2026-09-04 00:07:5941.37019-115.02880210°13km/h23124m4.6m/s-47.0°C0%0hPa0V00:00:0000:00:0000:00:00
KE7DJD2026-09-04 00:07:3841.37062-115.02827211°2km/h23013m4.7m/s-46.8°C0%0hPa0V00:00:0000:00:0000:00:00
KE7DJD2026-09-04 00:07:1841.37098-115.02761233°11km/h22894m5.1m/s-47.0°C0%0hPa0V00:00:0000:00:0000:00:00
KE7DJD2026-09-04 00:06:5841.37112-115.02744344°11km/h22779m5.2m/s-47.6°C0%0hPa0V00:00:0000:00:0000:00:00
KE7DJD2026-09-04 00:06:3741.37069-115.02720335°13km/h22662m6.3m/s-48.4°C0%0hPa0V00:00:0000:00:0000:00:00
KE7DJD2026-09-04 00:06:1641.37019-115.02674329°20km/h22547m5.6m/s-48.0°C0%0hPa0V00:00:0000:00:0000:00:00
KE7DJD2026-09-04 00:05:5641.36979-115.02651333°9km/h22441m6.0m/s-48.1°C0%0hPa0V00:00:0000:00:0000:00:00
KE7DJD2026-09-04 00:05:3541.36957-115.02586303°18km/h22329m5.8m/s-48.1°C0%0hPa0V00:00:0000:00:0000:00:00


GPX KML Map

© wettersonde.net (DO2JMG) - 2026  -  -